Asahikawa Airport, Japan

10:53 PM JST on November 01, 2014 (GMT +0900)
Asahikawa | Change Station
CLOSE
Current Station
Airport
Location: Asahikawa Airport,
Elevation: 682 ft
Nearby Weather Stations

Elev 682 ft 43.67 °N, 142.45 °E | Updated 2 hours ago

Light Rain Showers
Light Showers Rain
48 °F
Feels Like 48 °F
N
12
Wind Variable Wind from South

Today
High -- | Low -- °F
--% Chance of Precip.
Yesterday
High -- | Low -- °F
Precip. -- in
6:05 AM 4:21 PM
Waxing Gibbous, 66% visible
Pressure 29.98 in
Visibility 3.7 miles
Clouds Few 1000 ft
Mostly Cloudy 6000 ft
Dew Point 45 °F
Humidity 87%
Rainfall 0.00 in
Snow Depth Not available.
UV 0 out of 12
Pollen Not available.
Air Quality Not available.
Flu Activity Not available.
METAR RJEC 011100Z 17010KT 6000 -SHRA FEW010 BKN060 09/07 Q1015

More Conditions Fewer Conditions

Pressure 29.98 in
Visibility 3.7 miles
Clouds Few 1000 ft
Mostly Cloudy 6000 ft
Dew Point 45 °F
Humidity 87%
Rainfall 0.00 in
Snow Depth Not available.
UV 0 out of 12
Pollen Not available.
Air Quality Not available.
Flu Activity Not available.
METAR RJEC 011100Z 17010KT 6000 -SHRA FEW010 BKN060 09/07 Q1015

More Conditions Fewer Conditions

10-Day Weather Forecast

Almanac

Astronomy

Nov. 01, 2014 Rise Set
Actual Time
Civil Twilight
Nautical Twilight
Astronomical Twilight
Moon
Length of Visible Light
Length of Day
Tomorrow will be .
, % of the Moon is Illuminated

Today's Extremes

Country Highs Country Lows

Community

WunderPhotos

Upload Photos

1,766,937 photos uploaded!

WunderBlogs® & News

Nearby

Air Quality

  Air Quality AQ Index Pollutant
Not available.

Snow Depth

Station Depth Elevation

Earthquake Activity

City Distance Mag. Time & Date
Minimum magnitude displayed is 2.5.

Coastal Water Temperatures

Place Temperature

Nearby Weather Stations